Time;durP1;ratioP1;P1;durP2;ratioP2;P2;SDS_P1;SDS_P2;PMS_P1;PMS_P2;Temp;Humidity;BMP_temperature;BMP_pressure;BME280_temperature;BME280_humidity;BME280_pressure;Samples;Min_cycle;Max_cycle;Signal;HPM_P1;HPM_P2
2021/03/10 00:00:16;;;;;;;41.90;16.50;;;-2.30;85.80;;;;;;4428151;32;20426;-73
2021/03/10 00:02:43;;;;;;;43.80;16.73;;;-2.20;85.50;;;;;;4428098;32;20154;-73
2021/03/10 00:05:10;;;;;;;44.60;16.83;;;-2.20;86.10;;;;;;4425762;32;20174;-73
2021/03/10 00:07:37;;;;;;;39.37;17.80;;;-2.20;86.20;;;;;;4428197;32;20521;-74
2021/03/10 00:10:05;;;;;;;39.80;16.83;;;-2.20;86.30;;;;;;4426534;32;20150;-71
2021/03/10 00:12:32;;;;;;;48.83;18.93;;;-2.30;86.80;;;;;;4440796;32;20566;-73
2021/03/10 00:15:00;;;;;;;52.27;19.67;;;-2.20;87.40;;;;;;4431195;32;20154;-73
2021/03/10 00:17:27;;;;;;;51.03;18.97;;;-2.30;87.80;;;;;;4432945;32;20166;-73
2021/03/10 00:19:54;;;;;;;60.37;20.93;;;-2.40;88.30;;;;;;4436711;32;20185;-73
2021/03/10 00:22:20;;;;;;;50.60;20.47;;;-2.50;88.90;;;;;;4430566;32;20222;-71
2021/03/10 00:24:47;;;;;;;53.37;20.67;;;-2.60;89.30;;;;;;4437989;32;20198;-73
2021/03/10 00:27:26;;;;;;;48.83;20.30;;;-2.60;89.50;;;;;;4432795;32;20151;-72
2021/03/10 00:29:56;;;;;;;51.70;20.13;;;-2.60;89.90;;;;;;4443462;32;20158;-73
2021/03/10 00:32:25;;;;;;;48.63;19.93;;;-2.70;90.00;;;;;;4442240;32;20141;-73
2021/03/10 00:34:52;;;;;;;52.47;19.67;;;-2.70;90.20;;;;;;4443566;32;20188;-73
2021/03/10 00:37:20;;;;;;;52.83;18.77;;;-2.70;90.20;;;;;;4443301;32;20199;-73
2021/03/10 00:39:47;;;;;;;46.87;19.50;;;-2.70;90.30;;;;;;4441610;32;20158;-73
2021/03/10 00:42:15;;;;;;;52.90;20.47;;;-2.70;90.40;;;;;;4443185;32;20143;-73
2021/03/10 00:44:43;;;;;;;51.30;20.00;;;-2.70;90.50;;;;;;4436656;32;20189;-73
2021/03/10 00:47:09;;;;;;;51.73;19.93;;;-2.70;90.70;;;;;;4426461;32;20142;-73
2021/03/10 00:49:39;;;;;;;46.37;19.70;;;-2.90;90.90;;;;;;4425117;32;20185;-73
2021/03/10 00:52:06;;;;;;;45.10;19.33;;;-2.80;91.10;;;;;;4424498;32;20150;-73
2021/03/10 00:54:33;;;;;;;45.07;18.30;;;-2.80;91.00;;;;;;4425401;32;20154;-73
2021/03/10 00:56:59;;;;;;;49.33;18.97;;;-2.80;91.20;;;;;;4424652;32;20436;-73
2021/03/10 00:59:26;;;;;;;48.40;19.10;;;-2.80;91.10;;;;;;4424337;32;20163;-73
2021/03/10 01:01:53;;;;;;;48.10;19.27;;;-2.80;91.40;;;;;;4424443;32;20155;-73
2021/03/10 01:04:20;;;;;;;49.30;18.23;;;-2.80;91.50;;;;;;4427273;32;20161;-73
2021/03/10 01:06:47;;;;;;;48.20;19.10;;;-2.80;91.60;;;;;;4427534;32;20164;-73
2021/03/10 01:09:13;;;;;;;50.43;19.90;;;-2.80;91.80;;;;;;4425946;32;20190;-73
2021/03/10 01:11:40;;;;;;;48.50;18.70;;;-2.90;91.90;;;;;;4427422;32;20185;-72
2021/03/10 01:14:07;;;;;;;49.60;19.13;;;-2.80;92.20;;;;;;4427403;32;20139;-72
2021/03/10 01:16:34;;;;;;;49.77;19.03;;;-2.80;91.80;;;;;;4425947;32;20166;-73
2021/03/10 01:19:01;;;;;;;52.60;19.60;;;-2.80;91.60;;;;;;4425705;32;20230;-72
2021/03/10 01:21:28;;;;;;;47.93;18.33;;;-2.90;91.80;;;;;;4427221;32;20163;-73
2021/03/10 01:23:54;;;;;;;44.47;18.53;;;-2.90;92.00;;;;;;4427253;32;20198;-72
2021/03/10 01:26:21;;;;;;;48.70;19.07;;;-2.90;92.20;;;;;;4427228;32;20232;-72
2021/03/10 01:28:48;;;;;;;45.67;18.80;;;-2.90;92.30;;;;;;4427456;32;20192;-73
2021/03/10 01:31:14;;;;;;;52.20;18.83;;;-2.90;92.20;;;;;;4425658;32;20149;-73
2021/03/10 01:33:41;;;;;;;48.83;19.60;;;-2.90;92.30;;;;;;4427372;32;20240;-71
2021/03/10 01:36:11;;;;;;;47.70;19.00;;;-2.90;92.60;;;;;;4425782;32;20198;-72
2021/03/10 01:38:38;;;;;;;48.30;19.30;;;-2.90;92.50;;;;;;4426263;32;20170;-71
2021/03/10 01:41:05;;;;;;;53.53;19.93;;;-2.90;92.60;;;;;;4425480;32;20152;-72
2021/03/10 01:43:32;;;;;;;52.23;20.03;;;-3.00;92.60;;;;;;4426990;32;20352;-72
2021/03/10 01:45:59;;;;;;;52.30;19.93;;;-3.00;92.70;;;;;;4427424;32;20447;-71
2021/03/10 01:48:25;;;;;;;51.33;20.47;;;-2.90;92.80;;;;;;4426599;32;20148;-72
2021/03/10 01:50:52;;;;;;;49.60;20.50;;;-3.00;93.10;;;;;;4425320;32;20146;-72
2021/03/10 01:53:19;;;;;;;51.97;21.70;;;-3.00;93.20;;;;;;4425282;32;20253;-72
2021/03/10 01:55:47;;;;;;;54.00;21.33;;;-3.10;93.40;;;;;;4426737;32;20465;-72
2021/03/10 01:58:13;;;;;;;56.20;22.13;;;-3.10;93.70;;;;;;4426057;32;20181;-72
2021/03/10 02:00:40;;;;;;;51.43;21.17;;;-3.10;93.90;;;;;;4425183;32;20148;-72
2021/03/10 02:03:07;;;;;;;53.60;22.80;;;-3.10;93.90;;;;;;4426616;32;20398;-71
2021/03/10 02:05:34;;;;;;;57.33;22.10;;;-3.10;94.10;;;;;;4425471;32;20163;-72
2021/03/10 02:08:09;;;;;;;54.33;22.23;;;-3.10;94.30;;;;;;4425041;32;20381;-72
2021/03/10 02:11:03;;;;;;;50.50;20.23;;;-3.10;94.40;;;;;;4425100;32;20293;-72
2021/03/10 02:13:48;;;;;;;52.60;20.20;;;-3.20;94.30;;;;;;4426376;32;20143;-72
2021/03/10 02:16:29;;;;;;;49.13;20.03;;;-3.20;94.60;;;;;;4426350;32;20151;-72
2021/03/10 02:19:23;;;;;;;55.43;21.30;;;-3.20;94.80;;;;;;4425764;32;20218;-72
2021/03/10 02:22:06;;;;;;;52.10;21.70;;;-3.20;94.90;;;;;;4425485;32;20185;-71
2021/03/10 02:24:44;;;;;;;52.23;21.50;;;-3.10;94.80;;;;;;4426321;32;20192;-72
2021/03/10 02:27:32;;;;;;;48.63;20.67;;;-3.10;94.60;;;;;;4424872;32;20201;-72
2021/03/10 02:30:08;;;;;;;46.70;20.13;;;-3.20;94.70;;;;;;4424763;32;20171;-71
2021/03/10 02:32:38;;;;;;;52.43;21.13;;;-3.20;95.20;;;;;;4426228;32;20142;-72
2021/03/10 02:35:07;;;;;;;49.43;20.73;;;-3.20;95.50;;;;;;4424739;32;20176;-71
2021/03/10 02:37:36;;;;;;;51.40;20.90;;;-3.20;95.40;;;;;;4424705;32;20144;-72
2021/03/10 02:40:05;;;;;;;52.67;21.17;;;-3.30;95.50;;;;;;4426094;32;20178;-72
2021/03/10 02:42:33;;;;;;;51.93;21.03;;;-3.30;95.80;;;;;;4426135;32;20178;-73
2021/03/10 02:45:01;;;;;;;54.03;20.93;;;-3.40;96.10;;;;;;4426339;32;20499;-71
2021/03/10 02:47:28;;;;;;;50.20;20.80;;;-3.40;96.10;;;;;;4426108;32;20165;-71
2021/03/10 02:49:55;;;;;;;51.90;21.00;;;-3.40;96.30;;;;;;4424623;32;20144;-73
2021/03/10 02:52:22;;;;;;;52.07;21.20;;;-3.50;96.40;;;;;;4425971;32;20167;-71
2021/03/10 02:54:51;;;;;;;53.67;22.40;;;-3.50;96.70;;;;;;4426042;32;20216;-71
2021/03/10 02:57:18;;;;;;;54.37;22.40;;;-3.50;96.60;;;;;;4425988;32;20143;-72
2021/03/10 02:59:45;;;;;;;52.07;20.93;;;-3.50;96.70;;;;;;4425924;32;20155;-71
2021/03/10 03:02:13;;;;;;;56.33;22.90;;;-3.50;97.30;;;;;;4425875;32;20194;-72
2021/03/10 03:04:41;;;;;;;59.90;22.87;;;-3.60;97.70;;;;;;4425625;32;20176;-72
2021/03/10 03:07:17;;;;;;;57.17;22.37;;;-3.60;98.10;;;;;;4426159;32;20159;-72
2021/03/10 03:09:44;;;;;;;54.50;22.47;;;-3.70;98.10;;;;;;4425806;32;20177;-73
2021/03/10 03:12:13;;;;;;;58.30;22.47;;;-3.70;98.30;;;;;;4424439;32;20172;-73
2021/03/10 03:14:41;;;;;;;59.97;22.40;;;-3.70;98.70;;;;;;4424305;32;20150;-73
2021/03/10 03:17:09;;;;;;;56.47;21.73;;;-3.70;98.80;;;;;;4425808;32;20143;-73
2021/03/10 03:19:35;;;;;;;53.20;21.50;;;-3.80;98.90;;;;;;4425756;32;20146;-73
2021/03/10 03:22:04;;;;;;;59.07;22.03;;;-3.80;99.20;;;;;;4424372;32;20154;-72
2021/03/10 03:24:30;;;;;;;52.20;21.27;;;-3.80;99.70;;;;;;4425322;32;20182;-72
2021/03/10 03:26:58;;;;;;;55.60;21.77;;;-3.90;99.90;;;;;;4426487;32;20156;-72
2021/03/10 03:29:26;;;;;;;54.70;21.57;;;-3.90;99.90;;;;;;4428966;32;20203;-72
2021/03/10 03:31:55;;;;;;;54.63;22.20;;;-3.90;99.90;;;;;;4427439;32;20139;-72
2021/03/10 03:34:23;;;;;;;55.17;21.33;;;-3.90;99.90;;;;;;4428845;32;20206;-72
2021/03/10 03:36:51;;;;;;;53.30;21.60;;;-3.90;99.90;;;;;;4427333;32;20193;-72
2021/03/10 03:39:18;;;;;;;58.70;22.20;;;-3.90;99.90;;;;;;4428697;32;20158;-72
2021/03/10 03:41:45;;;;;;;53.47;20.87;;;-4.00;99.90;;;;;;4427794;32;20426;-72
2021/03/10 03:44:12;;;;;;;53.33;21.20;;;-4.00;99.90;;;;;;4428750;32;20177;-72
2021/03/10 03:46:39;;;;;;;52.23;20.67;;;-4.00;99.90;;;;;;4428298;32;20214;-72
2021/03/10 03:49:06;;;;;;;52.80;20.57;;;-3.90;99.90;;;;;;4429158;32;20193;-72
2021/03/10 03:51:32;;;;;;;55.17;22.00;;;-4.00;99.90;;;;;;4428628;32;20167;-72
2021/03/10 03:54:01;;;;;;;56.17;21.67;;;-3.90;99.90;;;;;;4427318;32;20158;-72
2021/03/10 03:56:28;;;;;;;55.17;21.10;;;-4.00;99.90;;;;;;4427040;32;20143;-72
2021/03/10 03:58:55;;;;;;;51.13;20.83;;;-4.00;99.90;;;;;;4427001;32;20181;-72
2021/03/10 04:01:22;;;;;;;52.67;21.23;;;-4.00;99.90;;;;;;4427063;32;20226;-71
2021/03/10 04:03:48;;;;;;;48.67;21.03;;;-4.00;99.90;;;;;;4414925;32;20139;-72
2021/03/10 04:06:15;;;;;;;53.07;21.17;;;-4.00;99.90;;;;;;4426853;32;20163;-72
2021/03/10 04:08:43;;;;;;;54.77;21.63;;;-4.00;99.90;;;;;;4428596;32;20147;-71
2021/03/10 04:11:12;;;;;;;54.80;21.23;;;-4.00;99.90;;;;;;4428302;32;20147;-72
2021/03/10 04:13:38;;;;;;;57.10;20.90;;;-4.00;99.90;;;;;;4428298;32;20169;-72
2021/03/10 04:16:06;;;;;;;49.03;20.10;;;-4.00;99.90;;;;;;4426191;32;20173;-72
2021/03/10 04:18:33;;;;;;;51.80;21.03;;;-4.00;99.90;;;;;;4426752;32;20156;-72
2021/03/10 04:20:59;;;;;;;51.37;19.97;;;-4.00;99.90;;;;;;4428184;32;20348;-72
2021/03/10 04:23:25;;;;;;;54.97;20.97;;;-4.00;99.90;;;;;;4426688;32;20143;-72
2021/03/10 04:25:52;;;;;;;56.23;21.57;;;-4.00;99.90;;;;;;4428287;32;20155;-72
2021/03/10 04:28:18;;;;;;;52.90;20.37;;;-4.00;99.90;;;;;;4426564;32;20151;-72
2021/03/10 04:30:45;;;;;;;51.80;22.33;;;-4.10;99.90;;;;;;4426482;32;20181;-72
2021/03/10 04:33:11;;;;;;;52.47;21.00;;;-4.10;99.90;;;;;;4427971;32;20500;-72
2021/03/10 04:35:38;;;;;;;56.77;21.67;;;-4.10;99.90;;;;;;4427535;32;20162;-72
2021/03/10 04:38:24;;;;;;;57.70;21.90;;;-4.10;99.90;;;;;;4426893;32;20233;-72
2021/03/10 04:40:51;;;;;;;55.93;21.97;;;-4.20;99.90;;;;;;4426568;32;20494;-72
2021/03/10 04:43:17;;;;;;;56.50;21.20;;;-4.20;99.90;;;;;;4427878;32;20176;-72
2021/03/10 04:45:43;;;;;;;55.23;22.00;;;-4.20;99.90;;;;;;4427799;32;20423;-72
2021/03/10 04:48:10;;;;;;;56.13;22.50;;;-4.30;99.90;;;;;;4427762;32;20204;-72
2021/03/10 04:50:37;;;;;;;56.83;22.17;;;-4.30;99.90;;;;;;4426234;32;20427;-73
2021/03/10 04:53:03;;;;;;;51.57;22.40;;;-4.40;99.90;;;;;;4427756;32;20146;-73
2021/03/10 04:55:29;;;;;;;55.70;22.33;;;-4.40;99.90;;;;;;4427623;32;20388;-72
2021/03/10 04:57:56;;;;;;;55.67;22.27;;;-4.40;99.90;;;;;;4426052;32;20151;-72
2021/03/10 05:00:22;;;;;;;57.53;21.33;;;-4.40;99.90;;;;;;4427034;32;20516;-72
2021/03/10 05:02:49;;;;;;;60.30;22.83;;;-4.40;99.90;;;;;;4426771;32;20164;-72
2021/03/10 05:05:15;;;;;;;54.93;22.53;;;-4.40;99.90;;;;;;4412260;32;20541;-72
2021/03/10 05:07:44;;;;;;;61.63;23.13;;;-4.40;99.90;;;;;;4426929;32;20170;-72
2021/03/10 05:10:12;;;;;;;56.00;22.07;;;-4.40;99.90;;;;;;4425913;32;20195;-72
2021/03/10 05:12:38;;;;;;;59.43;22.67;;;-4.40;99.90;;;;;;4426381;32;20150;-72
2021/03/10 05:15:06;;;;;;;63.33;22.27;;;-4.40;99.90;;;;;;4426882;32;20491;-72
2021/03/10 05:17:33;;;;;;;55.90;22.70;;;-4.40;99.90;;;;;;4425904;32;20194;-72
2021/03/10 05:20:00;;;;;;;58.00;22.27;;;-4.40;99.90;;;;;;4427293;32;20203;-72
2021/03/10 05:22:27;;;;;;;59.23;23.43;;;-4.40;99.90;;;;;;4426560;32;20165;-72
2021/03/10 05:24:54;;;;;;;58.00;23.13;;;-4.40;99.90;;;;;;4425800;32;20167;-72
2021/03/10 05:27:21;;;;;;;53.03;21.90;;;-4.40;99.90;;;;;;4427188;32;20170;-72
2021/03/10 05:29:48;;;;;;;56.53;22.20;;;-4.30;99.90;;;;;;4425836;32;20146;-72
2021/03/10 05:32:15;;;;;;;59.10;23.00;;;-4.30;99.90;;;;;;4425636;32;20143;-72
2021/03/10 05:34:42;;;;;;;55.87;22.70;;;-4.30;99.90;;;;;;4427118;32;20151;-72
2021/03/10 05:37:08;;;;;;;58.93;22.43;;;-4.30;99.90;;;;;;4425517;32;20191;-72
2021/03/10 05:39:35;;;;;;;59.20;21.77;;;-4.20;99.90;;;;;;4426909;32;20481;-71
2021/03/10 05:42:02;;;;;;;53.40;22.83;;;-4.20;99.90;;;;;;4426938;32;20485;-72
2021/03/10 05:44:28;;;;;;;60.40;23.67;;;-4.20;99.90;;;;;;4425932;32;20143;-73
2021/03/10 05:46:55;;;;;;;57.87;23.17;;;-4.20;99.90;;;;;;4424760;32;20350;-72
2021/03/10 05:49:22;;;;;;;58.37;23.43;;;-4.10;99.90;;;;;;4425520;32;20197;-73
2021/03/10 05:51:52;;;;;;;60.67;23.43;;;-4.00;99.90;;;;;;4426794;32;20180;-73
2021/03/10 05:54:22;;;;;;;56.47;22.90;;;-3.90;99.90;;;;;;4425335;32;20146;-73
2021/03/10 05:56:50;;;;;;;52.80;21.83;;;-3.80;99.90;;;;;;4426796;32;20143;-72
2021/03/10 05:59:16;;;;;;;50.63;20.97;;;-3.80;99.90;;;;;;4426669;32;20155;-72
2021/03/10 06:01:43;;;;;;;57.43;23.50;;;-3.70;99.90;;;;;;4425271;32;20147;-72
2021/03/10 06:04:09;;;;;;;58.97;22.87;;;-3.60;99.90;;;;;;4425117;32;20432;-72
2021/03/10 06:06:38;;;;;;;54.73;22.53;;;-3.50;99.90;;;;;;4424641;32;20155;-73
2021/03/10 06:09:11;;;;;;;54.93;22.17;;;-3.40;99.90;;;;;;4424866;32;20143;-71
2021/03/10 06:11:38;;;;;;;52.60;21.23;;;-3.20;99.90;;;;;;4426412;32;20174;-72
2021/03/10 06:14:17;;;;;;;46.93;20.43;;;-3.20;99.90;;;;;;4425100;32;20222;-72
2021/03/10 06:16:43;;;;;;;55.10;22.00;;;-2.90;99.90;;;;;;4426504;32;20437;-71
2021/03/10 06:19:10;;;;;;;53.13;21.73;;;-2.70;99.90;;;;;;4426322;32;20406;-72
2021/03/10 06:21:47;;;;;;;53.00;21.27;;;-2.50;99.90;;;;;;4424858;32;20218;-71
2021/03/10 06:24:13;;;;;;;56.20;21.63;;;-2.50;99.60;;;;;;4426308;32;20149;-71
2021/03/10 06:26:40;;;;;;;53.73;21.90;;;-2.40;99.10;;;;;;4424763;32;20204;-72
2021/03/10 06:29:15;;;;;;;51.00;21.63;;;-2.30;98.80;;;;;;4425452;32;20139;-71
2021/03/10 06:31:42;;;;;;;58.93;23.40;;;-2.10;98.20;;;;;;4425057;32;20196;-72
2021/03/10 06:34:14;;;;;;;56.30;23.43;;;-2.00;97.50;;;;;;4426057;32;20142;-71
2021/03/10 06:36:48;;;;;;;58.23;23.77;;;-1.90;97.10;;;;;;4426069;32;20171;-72
2021/03/10 06:39:28;;;;;;;60.87;23.80;;;-1.80;96.80;;;;;;4426056;32;20469;-72
2021/03/10 06:41:56;;;;;;;55.67;23.90;;;-1.80;96.60;;;;;;4424919;32;20457;-72
2021/03/10 06:44:24;;;;;;;59.40;24.07;;;-1.80;96.90;;;;;;4424511;32;20378;-72
2021/03/10 06:47:00;;;;;;;57.30;24.63;;;-1.60;96.60;;;;;;4425655;32;20177;-73
2021/03/10 06:49:29;;;;;;;53.60;23.67;;;-1.40;95.90;;;;;;4432810;32;20154;-72
2021/03/10 06:51:59;;;;;;;60.43;24.80;;;-1.30;95.50;;;;;;4425914;32;20146;-72
2021/03/10 06:54:27;;;;;;;57.53;24.20;;;-1.20;95.00;;;;;;4424537;32;20142;-72
2021/03/10 06:57:01;;;;;;;61.40;24.77;;;-1.10;94.60;;;;;;4425340;32;20143;-72
2021/03/10 06:59:43;;;;;;;60.27;24.53;;;-1.00;94.10;;;;;;4424249;32;20223;-71
2021/03/10 07:02:23;;;;;;;54.57;23.67;;;-1.00;93.50;;;;;;4424985;32;20142;-72
2021/03/10 07:04:55;;;;;;;54.67;23.97;;;-0.90;93.40;;;;;;4425196;32;20527;-72
2021/03/10 07:07:26;;;;;;;56.17;23.57;;;-0.80;93.00;;;;;;4424246;32;20170;-72
2021/03/10 07:09:52;;;;;;;53.10;22.60;;;-0.80;92.20;;;;;;4424215;32;20160;-72
2021/03/10 07:12:21;;;;;;;49.43;22.27;;;-0.90;92.20;;;;;;4424200;32;20200;-72
2021/03/10 07:14:48;;;;;;;55.20;23.80;;;-0.80;92.60;;;;;;4423647;32;20469;-71
2021/03/10 07:17:18;;;;;;;61.00;25.40;;;-0.60;92.70;;;;;;4425760;32;20196;-72
2021/03/10 07:19:46;;;;;;;60.57;24.87;;;-0.60;92.70;;;;;;4424420;32;20158;-72
2021/03/10 07:22:51;;;;;;;55.20;24.33;;;-0.60;92.30;;;;;;4425632;32;20192;-72
2021/03/10 07:25:31;;;;;;;60.27;24.30;;;-0.40;92.10;;;;;;4425888;32;20147;-71
2021/03/10 07:28:03;;;;;;;59.90;24.20;;;-0.30;91.70;;;;;;4424962;32;20434;-72
2021/03/10 07:30:36;;;;;;;61.60;25.40;;;-0.10;91.50;;;;;;4423770;32;20143;-72
2021/03/10 07:33:10;;;;;;;56.07;25.03;;;-0.10;91.30;;;;;;4423833;32;20193;-71
2021/03/10 07:36:01;;;;;;;63.37;24.60;;;0.10;90.80;;;;;;4423350;32;20150;-74
2021/03/10 07:38:36;;;;;;;61.87;25.57;;;0.10;90.20;;;;;;4423869;32;20168;-71
2021/03/10 07:41:07;;;;;;;58.90;25.67;;;0.20;90.40;;;;;;4430007;32;20180;-71
2021/03/10 07:43:45;;;;;;;56.60;25.43;;;0.30;90.80;;;;;;4430719;32;20201;-70
2021/03/10 07:46:37;;;;;;;56.27;25.10;;;0.40;90.60;;;;;;4425436;32;20502;-69
2021/03/10 07:49:20;;;;;;;59.80;24.97;;;0.40;89.80;;;;;;4433825;32;20155;-68
2021/03/10 07:51:47;;;;;;;58.73;24.20;;;0.50;89.10;;;;;;4431635;32;20162;-70
2021/03/10 07:54:21;;;;;;;54.53;24.23;;;0.60;88.60;;;;;;4430122;32;20158;-69
2021/03/10 07:56:47;;;;;;;57.30;23.30;;;0.70;87.90;;;;;;4429866;32;20188;-69
2021/03/10 07:59:15;;;;;;;54.07;23.77;;;0.80;87.40;;;;;;4429865;32;20266;-68
2021/03/10 08:01:46;;;;;;;55.53;23.33;;;0.90;86.50;;;;;;4429629;32;20197;-69
2021/03/10 08:04:18;;;;;;;59.40;25.20;;;0.90;85.60;;;;;;4433025;32;20181;-68
2021/03/10 08:06:52;;;;;;;52.37;21.70;;;1.10;85.40;;;;;;4433673;32;20221;-68
2021/03/10 08:09:21;;;;;;;49.67;22.53;;;1.30;84.50;;;;;;4439052;32;20138;-69
2021/03/10 08:12:11;;;;;;;48.23;21.53;;;1.30;82.80;;;;;;4440195;32;20244;-68
2021/03/10 08:14:43;;;;;;;57.90;22.80;;;1.40;83.50;;;;;;4443350;32;20457;-69
2021/03/10 08:17:23;;;;;;;48.57;21.00;;;1.50;82.10;;;;;;4443551;32;20146;-67
2021/03/10 08:19:55;;;;;;;45.47;20.63;;;1.70;80.90;;;;;;4443434;32;20454;-69
2021/03/10 08:22:24;;;;;;;52.17;21.90;;;1.80;79.20;;;;;;4441298;32;20209;-68
2021/03/10 08:24:51;;;;;;;46.70;20.97;;;2.30;78.70;;;;;;4441083;32;20150;-68
2021/03/10 08:27:31;;;;;;;50.40;20.23;;;2.70;76.60;;;;;;4441920;32;20199;-68
2021/03/10 08:29:58;;;;;;;44.60;18.93;;;3.10;74.60;;;;;;4441831;32;20165;-68
2021/03/10 08:32:30;;;;;;;39.40;18.00;;;3.30;72.60;;;;;;4441591;32;20158;-69
2021/03/10 08:35:06;;;;;;;37.73;18.10;;;3.50;70.60;;;;;;4443378;32;20368;-69
2021/03/10 08:37:33;;;;;;;38.27;17.27;;;3.70;70.20;;;;;;4442958;32;20202;-69
2021/03/10 08:39:59;;;;;;;48.30;17.73;;;3.70;68.60;;;;;;4442577;32;20527;-70
2021/03/10 08:42:30;;;;;;;36.40;16.67;;;3.80;67.90;;;;;;4442441;32;20193;-68
2021/03/10 08:44:56;;;;;;;39.60;17.10;;;3.60;67.20;;;;;;4442871;32;20161;-70
2021/03/10 08:47:25;;;;;;;34.80;17.57;;;3.90;67.30;;;;;;4442667;32;20510;-69
2021/03/10 08:49:53;;;;;;;41.73;17.87;;;4.00;66.30;;;;;;4441434;32;20178;-70
2021/03/10 08:52:20;;;;;;;36.00;15.70;;;4.40;65.70;;;;;;4440408;32;20164;-76
2021/03/10 08:54:47;;;;;;;30.87;14.27;;;4.70;64.40;;;;;;4435987;32;20252;-73
2021/03/10 08:57:14;;;;;;;36.00;15.10;;;5.00;62.30;;;;;;4426129;32;20188;-72
2021/03/10 08:59:41;;;;;;;32.33;15.73;;;5.30;61.40;;;;;;4423383;32;20191;-71
2021/03/10 09:02:08;;;;;;;35.70;14.87;;;5.80;59.90;;;;;;4422734;32;20175;-72
2021/03/10 09:04:35;;;;;;;35.97;14.83;;;6.10;58.40;;;;;;4423120;32;20379;-71
2021/03/10 09:07:02;;;;;;;34.57;14.80;;;6.40;57.60;;;;;;4425578;32;20407;-73
2021/03/10 09:09:33;;;;;;;33.57;14.17;;;6.00;56.50;;;;;;4426541;32;20191;-72
2021/03/10 09:12:01;;;;;;;31.20;14.00;;;6.20;56.90;;;;;;4439152;32;20182;-72
2021/03/10 09:14:28;;;;;;;28.30;13.53;;;6.40;56.60;;;;;;4430201;32;20159;-70
2021/03/10 09:16:55;;;;;;;28.83;13.10;;;6.80;54.80;;;;;;4433147;32;20150;-72
2021/03/10 09:19:51;;;;;;;25.73;12.07;;;7.10;54.40;;;;;;4436399;32;20614;-73
2021/03/10 09:22:21;;;;;;;25.30;11.90;;;7.50;53.50;;;;;;4362698;32;20158;-73
2021/03/10 09:25:11;;;;;;;22.37;10.90;;;7.50;52.40;;;;;;4362610;32;20193;-70
2021/03/10 09:27:38;;;;;;;21.27;10.63;;;7.90;51.90;;;;;;4362207;32;20223;-68
2021/03/10 09:30:07;;;;;;;20.00;9.53;;;7.80;50.60;;;;;;4352006;33;20525;-69
2021/03/10 09:32:47;;;;;;;24.00;10.40;;;7.90;49.20;;;;;;4362736;32;20158;-69
2021/03/10 09:35:27;;;;;;;26.37;12.23;;;7.90;49.40;;;;;;4351531;32;20158;-69
2021/03/10 09:37:56;;;;;;;27.17;12.37;;;8.00;49.70;;;;;;4362517;32;20157;-69
2021/03/10 09:40:42;;;;;;;26.10;12.33;;;8.60;49.70;;;;;;4362507;32;20168;-70
2021/03/10 09:43:19;;;;;;;24.00;11.70;;;9.10;48.00;;;;;;4357883;32;20211;-69
2021/03/10 09:45:47;;;;;;;26.43;12.33;;;9.00;47.30;;;;;;4362132;32;20167;-70
2021/03/10 09:48:35;;;;;;;24.70;11.83;;;8.80;47.10;;;;;;4364177;32;20152;-69
2021/03/10 09:51:06;;;;;;;25.87;12.73;;;8.60;47.60;;;;;;4364165;32;20186;-68
2021/03/10 09:53:33;;;;;;;22.67;12.17;;;8.30;48.20;;;;;;4362413;32;20195;-69
2021/03/10 09:56:07;;;;;;;27.33;12.03;;;7.90;48.40;;;;;;4363911;32;20498;-69
2021/03/10 09:59:04;;;;;;;24.57;12.53;;;8.10;49.40;;;;;;4379602;32;20148;-69
2021/03/10 10:01:31;;;;;;;23.30;11.43;;;8.30;49.10;;;;;;4432149;32;20427;-70
2021/03/10 10:04:09;;;;;;;24.47;11.53;;;8.20;48.00;;;;;;4437707;32;20157;-68
2021/03/10 10:06:35;;;;;;;23.37;11.23;;;8.00;47.80;;;;;;4430568;32;20153;-69
2021/03/10 10:09:02;;;;;;;21.70;11.00;;;7.70;48.60;;;;;;4431382;32;20495;-69
2021/03/10 10:11:28;;;;;;;23.70;11.10;;;7.50;49.10;;;;;;4437764;32;20174;-70
2021/03/10 10:13:55;;;;;;;22.17;10.73;;;7.30;49.10;;;;;;4428912;32;20188;-70
2021/03/10 10:16:21;;;;;;;20.57;9.87;;;6.90;48.60;;;;;;4439176;32;20196;-69
2021/03/10 10:18:49;;;;;;;17.80;7.87;;;6.70;49.00;;;;;;4433964;32;20188;-69
2021/03/10 10:21:17;;;;;;;14.83;7.40;;;6.60;49.00;;;;;;4430141;32;20163;-70
2021/03/10 10:23:44;;;;;;;15.43;7.13;;;6.80;48.20;;;;;;4437317;32;20146;-69
2021/03/10 10:26:20;;;;;;;12.83;6.80;;;7.00;47.90;;;;;;4428871;32;20158;-69
2021/03/10 10:29:00;;;;;;;13.90;7.20;;;7.10;47.40;;;;;;4434125;32;20165;-67
2021/03/10 10:31:34;;;;;;;14.47;6.83;;;7.10;47.00;;;;;;4437344;32;20179;-68
2021/03/10 10:34:43;;;;;;;12.37;6.67;;;7.00;46.90;;;;;;4425531;32;20365;-69
2021/03/10 10:38:03;;;;;;;16.40;8.00;;;6.50;47.40;;;;;;4427058;32;20436;-68
2021/03/10 10:40:43;;;;;;;25.10;11.33;;;7.10;47.70;;;;;;4348307;33;20463;-69
2021/03/10 10:43:09;;;;;;;26.00;12.40;;;6.90;49.50;;;;;;4347098;33;20153;-69
2021/03/10 10:45:36;;;;;;;23.43;11.67;;;7.10;49.80;;;;;;4347651;33;20426;-68
2021/03/10 10:48:04;;;;;;;28.70;11.40;;;7.20;50.20;;;;;;4346338;33;20275;-69
2021/03/10 10:50:30;;;;;;;19.50;10.23;;;7.20;49.70;;;;;;4347815;32;20233;-70
2021/03/10 10:53:02;;;;;;;21.63;10.97;;;7.00;49.60;;;;;;4352969;32;20181;-69
2021/03/10 10:55:28;;;;;;;20.53;10.83;;;7.00;49.90;;;;;;4357793;32;20228;-70
2021/03/10 10:57:55;;;;;;;21.13;10.57;;;7.20;50.20;;;;;;4352422;33;20206;-68
2021/03/10 11:00:25;;;;;;;18.67;9.50;;;6.80;49.50;;;;;;4352844;32;20207;-70
2021/03/10 11:02:51;;;;;;;21.13;9.90;;;7.10;50.50;;;;;;4359923;32;20453;-69
2021/03/10 11:05:18;;;;;;;21.50;10.73;;;8.00;49.00;;;;;;4352163;32;20234;-69
2021/03/10 11:07:45;;;;;;;26.33;10.90;;;8.90;46.60;;;;;;4363015;32;20159;-68
2021/03/10 11:10:11;;;;;;;22.03;11.10;;;9.30;45.40;;;;;;4368946;32;20413;-71
2021/03/10 11:12:39;;;;;;;21.17;9.17;;;9.50;45.10;;;;;;4367362;32;20160;-70
2021/03/10 11:15:07;;;;;;;12.60;6.40;;;9.60;43.00;;;;;;4359173;32;20186;-70
2021/03/10 11:17:35;;;;;;;12.97;6.20;;;9.20;40.10;;;;;;4418415;32;20640;-69
2021/03/10 11:20:05;;;;;;;11.67;6.40;;;9.40;40.20;;;;;;4419630;32;20166;-69
2021/03/10 11:22:32;;;;;;;13.77;6.50;;;10.20;39.60;;;;;;4420571;32;20151;-70
2021/03/10 11:24:58;;;;;;;14.40;7.17;;;10.80;37.80;;;;;;4421922;32;20146;-71
2021/03/10 11:27:25;;;;;;;13.73;7.00;;;10.60;37.60;;;;;;4422482;32;20188;-69
2021/03/10 11:29:51;;;;;;;15.73;7.00;;;10.80;38.00;;;;;;4421649;32;20204;-70
2021/03/10 11:32:18;;;;;;;12.53;7.20;;;10.90;38.30;;;;;;4422242;32;20189;-70
2021/03/10 11:34:45;;;;;;;11.77;7.03;;;11.40;37.10;;;;;;4423913;32;20147;-70
2021/03/10 11:37:11;;;;;;;11.93;6.97;;;11.30;37.80;;;;;;4424059;32;20158;-70
2021/03/10 11:39:38;;;;;;;13.60;6.97;;;12.10;36.90;;;;;;4424150;32;20170;-70
2021/03/10 11:42:05;;;;;;;18.30;8.40;;;12.90;35.20;;;;;;4410581;32;20142;-70
2021/03/10 11:44:32;;;;;;;14.37;8.20;;;13.50;34.70;;;;;;4424136;32;20197;-70
2021/03/10 11:46:58;;;;;;;16.43;8.10;;;14.00;33.70;;;;;;4426771;32;20205;-70
2021/03/10 11:49:25;;;;;;;13.87;7.60;;;14.30;33.40;;;;;;4428632;32;20491;-69
2021/03/10 11:51:52;;;;;;;13.77;7.90;;;14.60;31.50;;;;;;4427079;32;20202;-69
2021/03/10 11:54:18;;;;;;;12.90;7.57;;;13.90;31.30;;;;;;4426993;32;20146;-70
2021/03/10 11:56:44;;;;;;;13.07;7.77;;;14.00;32.50;;;;;;4427475;32;20197;-69
2021/03/10 11:59:13;;;;;;;13.07;7.70;;;13.60;32.50;;;;;;4428255;32;20591;-69
2021/03/10 12:01:41;;;;;;;13.40;7.40;;;14.40;31.80;;;;;;4426825;32;20189;-69
2021/03/10 12:04:07;;;;;;;13.93;8.40;;;15.30;30.00;;;;;;4426851;32;20143;-69
2021/03/10 12:06:35;;;;;;;14.07;7.80;;;15.40;29.10;;;;;;4440951;32;20303;-70
2021/03/10 12:09:02;;;;;;;14.03;7.87;;;15.60;29.10;;;;;;4441981;32;20142;-69
2021/03/10 12:11:30;;;;;;;13.47;7.97;;;14.40;29.80;;;;;;4442089;32;20173;-70
2021/03/10 12:14:04;;;;;;;14.67;8.20;;;14.50;30.40;;;;;;4443313;32;20150;-70
2021/03/10 12:16:31;;;;;;;12.73;7.80;;;14.20;30.40;;;;;;4441947;32;20150;-70
2021/03/10 12:18:58;;;;;;;14.87;8.13;;;13.00;31.00;;;;;;4443326;32;20177;-70
2021/03/10 12:21:24;;;;;;;14.23;8.20;;;13.30;31.30;;;;;;4441969;32;20456;-70
2021/03/10 12:23:51;;;;;;;13.53;7.77;;;13.10;31.80;;;;;;4443739;32;20169;-70
2021/03/10 12:26:18;;;;;;;14.37;7.70;;;13.20;32.50;;;;;;4443438;32;20158;-70
2021/03/10 12:28:44;;;;;;;13.97;8.20;;;13.00;31.80;;;;;;4443319;32;20138;-70
2021/03/10 12:31:10;;;;;;;14.80;7.70;;;12.40;33.20;;;;;;4441871;32;20510;-70
2021/03/10 12:33:37;;;;;;;16.27;7.77;;;12.00;34.10;;;;;;4442206;32;20169;-70
2021/03/10 12:36:05;;;;;;;13.83;7.70;;;11.70;34.30;;;;;;4441615;32;20146;-69
2021/03/10 12:38:32;;;;;;;13.17;7.43;;;11.70;34.50;;;;;;4441556;32;20169;-71
2021/03/10 12:40:59;;;;;;;13.80;7.70;;;11.70;34.60;;;;;;4442915;32;20154;-70
2021/03/10 12:43:28;;;;;;;17.07;7.87;;;11.20;35.20;;;;;;4441777;32;20139;-70